sensor_id;sensor_type;location;lat;lon;timestamp;pressure;altitude;pressure_sealevel;temperature;humidity
3150;BME280;32503;47.748;8.960;2023-04-08T00:02:08;97111.47;;;10.40;66.04
3150;BME280;32503;47.748;8.960;2023-04-08T00:04:35;97109.03;;;10.35;66.85
3150;BME280;32503;47.748;8.960;2023-04-08T00:07:02;97107.09;;;10.36;67.30
3150;BME280;32503;47.748;8.960;2023-04-08T00:09:30;97115.22;;;10.36;66.60
3150;BME280;32503;47.748;8.960;2023-04-08T00:11:57;97111.63;;;10.32;66.97
3150;BME280;32503;47.748;8.960;2023-04-08T00:14:27;97112.88;;;10.34;66.70
3150;BME280;32503;47.748;8.960;2023-04-08T00:16:54;97115.22;;;10.36;67.17
3150;BME280;32503;47.748;8.960;2023-04-08T00:19:21;97113.75;;;10.38;66.96
3150;BME280;32503;47.748;8.960;2023-04-08T00:21:48;97097.72;;;10.17;66.52
3150;BME280;32503;47.748;8.960;2023-04-08T00:24:16;97117.47;;;10.34;66.72
3150;BME280;32503;47.748;8.960;2023-04-08T00:26:43;97117.22;;;10.39;66.84
3150;BME280;32503;47.748;8.960;2023-04-08T00:29:10;97115.34;;;10.39;66.51
3150;BME280;32503;47.748;8.960;2023-04-08T00:31:38;97119.94;;;10.39;66.47
3150;BME280;32503;47.748;8.960;2023-04-08T00:34:05;97119.25;;;10.42;66.73
3150;BME280;32503;47.748;8.960;2023-04-08T00:36:32;97119.50;;;10.37;67.43
3150;BME280;32503;47.748;8.960;2023-04-08T00:39:01;97120.63;;;10.36;66.93
3150;BME280;32503;47.748;8.960;2023-04-08T00:41:29;97121.44;;;10.36;67.18
3150;BME280;32503;47.748;8.960;2023-04-08T00:43:56;97115.94;;;10.33;67.12
3150;BME280;32503;47.748;8.960;2023-04-08T00:46:23;97117.47;;;10.34;67.02
3150;BME280;32503;47.748;8.960;2023-04-08T00:48:53;97086.38;;;10.12;67.09
3150;BME280;32503;47.748;8.960;2023-04-08T00:51:21;97105.41;;;10.15;67.57
3150;BME280;32503;47.748;8.960;2023-04-08T00:53:48;97126.44;;;10.22;67.55
3150;BME280;32503;47.748;8.960;2023-04-08T00:56:15;97112.41;;;10.32;67.07
3150;BME280;32503;47.748;8.960;2023-04-08T00:58:42;97123.56;;;10.31;66.37
3150;BME280;32503;47.748;8.960;2023-04-08T01:01:19;97098.06;;;10.16;66.79
3150;BME280;32503;47.748;8.960;2023-04-08T01:04:00;97114.34;;;10.32;66.47
3150;BME280;32503;47.748;8.960;2023-04-08T01:06:39;97114.78;;;10.34;66.57
3150;BME280;32503;47.748;8.960;2023-04-08T01:09:12;97102.19;;;10.25;66.41
3150;BME280;32503;47.748;8.960;2023-04-08T01:11:43;97103.53;;;10.32;67.03
3150;BME280;32503;47.748;8.960;2023-04-08T01:14:13;97106.22;;;10.32;66.87
3150;BME280;32503;47.748;8.960;2023-04-08T01:16:42;97096.09;;;10.29;66.54
3150;BME280;32503;47.748;8.960;2023-04-08T01:19:19;97115.63;;;10.22;67.18
3150;BME280;32503;47.748;8.960;2023-04-08T01:21:49;97098.91;;;10.04;67.40
3150;BME280;32503;47.748;8.960;2023-04-08T01:24:25;97115.34;;;10.11;67.23
3150;BME280;32503;47.748;8.960;2023-04-08T01:26:55;97106.56;;;10.02;67.99
3150;BME280;32503;47.748;8.960;2023-04-08T01:29:24;97118.28;;;10.06;68.06
3150;BME280;32503;47.748;8.960;2023-04-08T01:31:52;97078.41;;;9.87;68.00
3150;BME280;32503;47.748;8.960;2023-04-08T01:34:21;97100.25;;;10.10;67.82
3150;BME280;32503;47.748;8.960;2023-04-08T01:36:49;97102.94;;;10.10;67.71
3150;BME280;32503;47.748;8.960;2023-04-08T01:39:18;97087.22;;;10.00;67.84
3150;BME280;32503;47.748;8.960;2023-04-08T01:41:46;97085.75;;;10.02;67.79
3150;BME280;32503;47.748;8.960;2023-04-08T01:44:16;97099.91;;;10.12;67.22
3150;BME280;32503;47.748;8.960;2023-04-08T01:46:43;97102.94;;;10.10;68.11
3150;BME280;32503;47.748;8.960;2023-04-08T01:49:10;97103.97;;;10.05;68.08
3150;BME280;32503;47.748;8.960;2023-04-08T01:51:38;97103.09;;;10.01;68.18
3150;BME280;32503;47.748;8.960;2023-04-08T01:54:05;97093.13;;;9.90;68.25
3150;BME280;32503;47.748;8.960;2023-04-08T01:56:38;97102.22;;;9.97;68.31
3150;BME280;32503;47.748;8.960;2023-04-08T01:59:12;97098.28;;;9.95;68.63
3150;BME280;32503;47.748;8.960;2023-04-08T02:01:43;97101.88;;;9.99;68.17
3150;BME280;32503;47.748;8.960;2023-04-08T02:04:12;97084.25;;;9.89;68.40
3150;BME280;32503;47.748;8.960;2023-04-08T02:06:39;97108.25;;;10.06;68.13
3150;BME280;32503;47.748;8.960;2023-04-08T02:09:06;97104.22;;;10.00;68.34
3150;BME280;32503;47.748;8.960;2023-04-08T02:11:33;97107.97;;;9.96;68.10
3150;BME280;32503;47.748;8.960;2023-04-08T02:14:00;97111.69;;;9.91;68.42
3150;BME280;32503;47.748;8.960;2023-04-08T02:16:33;97092.16;;;9.82;68.29
3150;BME280;32503;47.748;8.960;2023-04-08T02:19:10;97122.78;;;10.02;67.80
3150;BME280;32503;47.748;8.960;2023-04-08T02:21:45;97112.22;;;9.97;68.43
3150;BME280;32503;47.748;8.960;2023-04-08T02:24:13;97116.19;;;9.87;68.70
3150;BME280;32503;47.748;8.960;2023-04-08T02:26:43;97109.13;;;9.82;68.45
3150;BME280;32503;47.748;8.960;2023-04-08T02:29:13;97122.47;;;9.91;68.68
3150;BME280;32503;47.748;8.960;2023-04-08T02:31:42;97118.56;;;9.89;68.76
3150;BME280;32503;47.748;8.960;2023-04-08T02:34:11;97114.09;;;9.80;68.81
3150;BME280;32503;47.748;8.960;2023-04-08T02:36:39;97119.00;;;9.91;68.40
3150;BME280;32503;47.748;8.960;2023-04-08T02:39:10;97123.72;;;9.94;68.53
3150;BME280;32503;47.748;8.960;2023-04-08T02:41:37;97122.34;;;10.00;67.67
3150;BME280;32503;47.748;8.960;2023-04-08T02:44:04;97133.03;;;9.96;68.10
3150;BME280;32503;47.748;8.960;2023-04-08T02:46:32;97121.47;;;9.96;67.68
3150;BME280;32503;47.748;8.960;2023-04-08T02:48:59;97128.88;;;9.99;67.65
3150;BME280;32503;47.748;8.960;2023-04-08T02:51:27;97130.00;;;9.98;67.92
3150;BME280;32503;47.748;8.960;2023-04-08T02:53:54;97124.41;;;9.91;67.91
3150;BME280;32503;47.748;8.960;2023-04-08T02:56:21;97127.00;;;9.87;68.36
3150;BME280;32503;47.748;8.960;2023-04-08T02:58:48;97125.84;;;9.88;68.93
3150;BME280;32503;47.748;8.960;2023-04-08T03:01:16;97071.53;;;9.49;69.10
3150;BME280;32503;47.748;8.960;2023-04-08T03:03:43;97105.78;;;9.73;69.12
3150;BME280;32503;47.748;8.960;2023-04-08T03:06:11;97126.81;;;9.80;69.25
3150;BME280;32503;47.748;8.960;2023-04-08T03:08:39;97121.31;;;9.76;69.08
3150;BME280;32503;47.748;8.960;2023-04-08T03:11:06;97125.13;;;9.75;68.97
3150;BME280;32503;47.748;8.960;2023-04-08T03:13:34;97122.66;;;9.70;69.66
3150;BME280;32503;47.748;8.960;2023-04-08T03:16:01;97104.94;;;9.57;69.18
3150;BME280;32503;47.748;8.960;2023-04-08T03:18:28;97118.63;;;9.64;69.66
3150;BME280;32503;47.748;8.960;2023-04-08T03:20:55;97123.81;;;9.69;69.26
3150;BME280;32503;47.748;8.960;2023-04-08T03:23:22;97121.78;;;9.66;69.95
3150;BME280;32503;47.748;8.960;2023-04-08T03:25:50;97117.06;;;9.63;69.55
3150;BME280;32503;47.748;8.960;2023-04-08T03:28:17;97118.63;;;9.64;69.16
3150;BME280;32503;47.748;8.960;2023-04-08T03:30:45;97120.41;;;9.72;69.00
3150;BME280;32503;47.748;8.960;2023-04-08T03:33:12;97131.31;;;9.76;69.55
3150;BME280;32503;47.748;8.960;2023-04-08T03:35:39;97125.34;;;9.70;69.89
3150;BME280;32503;47.748;8.960;2023-04-08T03:38:06;97126.94;;;9.71;70.09
3150;BME280;32503;47.748;8.960;2023-04-08T03:40:33;97127.19;;;9.66;70.24
3150;BME280;32503;47.748;8.960;2023-04-08T03:43:01;97130.31;;;9.68;69.86
3150;BME280;32503;47.748;8.960;2023-04-08T03:45:30;97126.72;;;9.64;70.44
3150;BME280;32503;47.748;8.960;2023-04-08T03:47:57;97131.94;;;9.57;70.55
3150;BME280;32503;47.748;8.960;2023-04-08T03:50:24;97122.34;;;9.59;70.46
3150;BME280;32503;47.748;8.960;2023-04-08T03:52:51;97126.28;;;9.62;70.08
3150;BME280;32503;47.748;8.960;2023-04-08T03:55:18;97126.28;;;9.62;70.44
3150;BME280;32503;47.748;8.960;2023-04-08T03:57:45;97124.03;;;9.64;69.44
3150;BME280;32503;47.748;8.960;2023-04-08T04:00:14;97129.09;;;9.65;70.03
3150;BME280;32503;47.748;8.960;2023-04-08T04:02:42;97103.94;;;9.49;70.05
3150;BME280;32503;47.748;8.960;2023-04-08T04:05:09;97134.59;;;9.69;69.93
3150;BME280;32503;47.748;8.960;2023-04-08T04:07:36;97135.28;;;9.66;70.10
3150;BME280;32503;47.748;8.960;2023-04-08T04:10:04;97129.00;;;9.62;70.48
3150;BME280;32503;47.748;8.960;2023-04-08T04:12:31;97133.25;;;9.63;70.29
3150;BME280;32503;47.748;8.960;2023-04-08T04:14:58;97140.22;;;9.64;70.54
3150;BME280;32503;47.748;8.960;2023-04-08T04:17:27;97138.31;;;9.64;70.23
3150;BME280;32503;47.748;8.960;2023-04-08T04:19:54;97138.22;;;9.61;70.34
3150;BME280;32503;47.748;8.960;2023-04-08T04:22:21;97132.38;;;9.59;70.20
3150;BME280;32503;47.748;8.960;2023-04-08T04:24:48;97136.28;;;9.61;70.37
3150;BME280;32503;47.748;8.960;2023-04-08T04:27:15;97140.81;;;9.57;70.33
3150;BME280;32503;47.748;8.960;2023-04-08T04:29:42;97143.16;;;9.59;70.39
3150;BME280;32503;47.748;8.960;2023-04-08T04:32:09;97131.13;;;9.56;70.45
3150;BME280;32503;47.748;8.960;2023-04-08T04:34:38;97138.44;;;9.56;69.81
3150;BME280;32503;47.748;8.960;2023-04-08T04:37:05;97141.34;;;9.63;70.06
3150;BME280;32503;47.748;8.960;2023-04-08T04:39:32;97132.56;;;9.66;70.45
3150;BME280;32503;47.748;8.960;2023-04-08T04:41:59;97135.94;;;9.63;69.94
3150;BME280;32503;47.748;8.960;2023-04-08T04:44:28;97128.88;;;9.71;69.85
3150;BME280;32503;47.748;8.960;2023-04-08T04:46:55;97142.22;;;9.67;69.64
3150;BME280;32503;47.748;8.960;2023-04-08T04:49:22;97135.06;;;9.59;70.09
3150;BME280;32503;47.748;8.960;2023-04-08T04:51:50;97132.25;;;9.55;70.13
3150;BME280;32503;47.748;8.960;2023-04-08T04:54:17;97141.56;;;9.58;70.18
3150;BME280;32503;47.748;8.960;2023-04-08T04:56:44;97139.44;;;9.63;70.05
3150;BME280;32503;47.748;8.960;2023-04-08T04:59:12;97141.78;;;9.65;70.26
3150;BME280;32503;47.748;8.960;2023-04-08T05:01:39;97119.03;;;9.38;70.24
3150;BME280;32503;47.748;8.960;2023-04-08T05:04:06;97155.31;;;9.53;69.91
3150;BME280;32503;47.748;8.960;2023-04-08T05:06:33;97155.19;;;9.49;70.42
3150;BME280;32503;47.748;8.960;2023-04-08T05:09:02;97163.41;;;9.53;70.26
3150;BME280;32503;47.748;8.960;2023-04-08T05:11:29;97164.53;;;9.52;69.83
3150;BME280;32503;47.748;8.960;2023-04-08T05:13:56;97161.84;;;9.52;70.04
3150;BME280;32503;47.748;8.960;2023-04-08T05:16:23;97170.28;;;9.50;70.50
3150;BME280;32503;47.748;8.960;2023-04-08T05:18:50;97167.03;;;9.44;70.82
3150;BME280;32503;47.748;8.960;2023-04-08T05:21:17;97163.66;;;9.35;70.88
3150;BME280;32503;47.748;8.960;2023-04-08T05:23:45;97172.75;;;9.43;71.27
3150;BME280;32503;47.748;8.960;2023-04-08T05:26:13;97165.78;;;9.42;70.84
3150;BME280;32503;47.748;8.960;2023-04-08T05:28:40;97174.44;;;9.47;70.59
3150;BME280;32503;47.748;8.960;2023-04-08T05:31:07;97161.19;;;9.42;70.86
3150;BME280;32503;47.748;8.960;2023-04-08T05:33:36;97172.66;;;9.52;71.26
3150;BME280;32503;47.748;8.960;2023-04-08T05:36:03;97166.00;;;9.49;70.81
3150;BME280;32503;47.748;8.960;2023-04-08T05:38:31;97173.09;;;9.54;70.83
3150;BME280;32503;47.748;8.960;2023-04-08T05:40:58;97165.88;;;9.45;71.01
3150;BME280;32503;47.748;8.960;2023-04-08T05:43:26;97173.09;;;9.54;71.07
3150;BME280;32503;47.748;8.960;2023-04-08T05:45:53;97179.13;;;9.63;70.96
3150;BME280;32503;47.748;8.960;2023-04-08T05:48:20;97172.84;;;9.59;70.65
3150;BME280;32503;47.748;8.960;2023-04-08T05:50:47;97177.22;;;9.63;70.58
3150;BME280;32503;47.748;8.960;2023-04-08T05:53:15;97182.06;;;9.70;70.50
3150;BME280;32503;47.748;8.960;2023-04-08T05:55:42;97188.81;;;9.76;70.25
3150;BME280;32503;47.748;8.960;2023-04-08T05:58:09;97183.16;;;9.81;70.48
3150;BME280;32503;47.748;8.960;2023-04-08T06:00:38;97184.38;;;9.84;70.39
3150;BME280;32503;47.748;8.960;2023-04-08T06:03:05;97181.47;;;9.89;70.04
3150;BME280;32503;47.748;8.960;2023-04-08T06:05:32;97184.66;;;10.07;69.88
3150;BME280;32503;47.748;8.960;2023-04-08T06:07:59;97183.25;;;10.25;69.34
3150;BME280;32503;47.748;8.960;2023-04-08T06:10:26;97184.69;;;10.63;69.38
3150;BME280;32503;47.748;8.960;2023-04-08T06:12:53;97189.34;;;11.11;69.25
3150;BME280;32503;47.748;8.960;2023-04-08T06:15:21;97170.16;;;11.67;68.25
3150;BME280;32503;47.748;8.960;2023-04-08T06:17:49;97169.34;;;12.41;66.49
3150;BME280;32503;47.748;8.960;2023-04-08T06:20:16;97182.19;;;13.10;64.34
3150;BME280;32503;47.748;8.960;2023-04-08T06:22:43;97178.31;;;13.57;61.65
3150;BME280;32503;47.748;8.960;2023-04-08T06:25:10;97182.53;;;14.12;60.02
3150;BME280;32503;47.748;8.960;2023-04-08T06:27:38;97182.16;;;14.81;57.93
3150;BME280;32503;47.748;8.960;2023-04-08T06:30:07;97199.75;;;15.35;55.85
3150;BME280;32503;47.748;8.960;2023-04-08T06:32:34;97192.19;;;15.70;53.61
3150;BME280;32503;47.748;8.960;2023-04-08T06:35:04;97193.13;;;15.92;52.40
3150;BME280;32503;47.748;8.960;2023-04-08T06:37:32;97195.97;;;16.14;50.50
3150;BME280;32503;47.748;8.960;2023-04-08T06:40:04;97193.22;;;16.06;50.86
3150;BME280;32503;47.748;8.960;2023-04-08T06:42:32;97198.56;;;15.88;51.16
3150;BME280;32503;47.748;8.960;2023-04-08T06:44:59;97204.06;;;15.96;50.52
3150;BME280;32503;47.748;8.960;2023-04-08T06:47:26;97197.13;;;16.16;50.60
3150;BME280;32503;47.748;8.960;2023-04-08T06:49:53;97194.91;;;16.40;49.60
3150;BME280;32503;47.748;8.960;2023-04-08T06:52:21;97180.47;;;16.43;49.01
3150;BME280;32503;47.748;8.960;2023-04-08T06:54:48;97190.66;;;16.60;48.71
3150;BME280;32503;47.748;8.960;2023-04-08T06:57:16;97196.63;;;16.84;48.13
3150;BME280;32503;47.748;8.960;2023-04-08T06:59:43;97197.41;;;16.95;47.34
3150;BME280;32503;47.748;8.960;2023-04-08T07:02:10;97199.00;;;17.07;46.72
3150;BME280;32503;47.748;8.960;2023-04-08T07:04:37;97205.22;;;17.22;47.20
3150;BME280;32503;47.748;8.960;2023-04-08T07:07:04;97209.16;;;17.24;47.01
3150;BME280;32503;47.748;8.960;2023-04-08T07:09:33;97163.44;;;16.82;46.52
3150;BME280;32503;47.748;8.960;2023-04-08T07:12:01;97191.09;;;16.66;47.12
3150;BME280;32503;47.748;8.960;2023-04-08T07:14:28;97202.28;;;16.39;47.81
3150;BME280;32503;47.748;8.960;2023-04-08T07:16:55;97207.22;;;16.01;48.70
3150;BME280;32503;47.748;8.960;2023-04-08T07:19:23;97209.63;;;15.58;49.75
3150;BME280;32503;47.748;8.960;2023-04-08T07:21:50;97212.88;;;15.26;50.53
3150;BME280;32503;47.748;8.960;2023-04-08T07:24:17;97215.72;;;14.96;51.59
3150;BME280;32503;47.748;8.960;2023-04-08T07:26:46;97208.50;;;14.73;52.37
3150;BME280;32503;47.748;8.960;2023-04-08T07:29:13;97220.06;;;14.63;52.48
3150;BME280;32503;47.748;8.960;2023-04-08T07:31:42;97216.72;;;14.47;52.41
3150;BME280;32503;47.748;8.960;2023-04-08T07:34:09;97184.72;;;14.02;52.93
3150;BME280;32503;47.748;8.960;2023-04-08T07:36:36;97188.25;;;14.03;53.28
3150;BME280;32503;47.748;8.960;2023-04-08T07:39:04;97220.25;;;14.17;53.93
3150;BME280;32503;47.748;8.960;2023-04-08T07:41:31;97222.47;;;14.08;53.47
3150;BME280;32503;47.748;8.960;2023-04-08T07:43:59;97216.94;;;14.00;53.84
3150;BME280;32503;47.748;8.960;2023-04-08T07:46:29;97176.19;;;13.74;54.14
3150;BME280;32503;47.748;8.960;2023-04-08T07:48:58;97228.66;;;14.08;54.50
3150;BME280;32503;47.748;8.960;2023-04-08T07:51:25;97221.00;;;14.14;54.27
3150;BME280;32503;47.748;8.960;2023-04-08T07:53:53;97226.94;;;14.23;54.00
3150;BME280;32503;47.748;8.960;2023-04-08T07:56:20;97212.44;;;14.12;54.12
3150;BME280;32503;47.748;8.960;2023-04-08T07:58:48;97234.22;;;14.15;54.61
3150;BME280;32503;47.748;8.960;2023-04-08T08:01:21;97218.00;;;14.22;54.00
3150;BME280;32503;47.748;8.960;2023-04-08T08:03:50;97229.00;;;14.33;53.39
3150;BME280;32503;47.748;8.960;2023-04-08T08:06:17;97233.69;;;14.36;52.34
3150;BME280;32503;47.748;8.960;2023-04-08T08:08:45;97219.94;;;14.22;51.76
3150;BME280;32503;47.748;8.960;2023-04-08T08:11:12;97218.69;;;14.16;51.35
3150;BME280;32503;47.748;8.960;2023-04-08T08:13:39;97237.81;;;14.23;51.70
3150;BME280;32503;47.748;8.960;2023-04-08T08:16:07;97237.88;;;14.27;51.72
3150;BME280;32503;47.748;8.960;2023-04-08T08:18:37;97237.81;;;14.23;51.84
3150;BME280;32503;47.748;8.960;2023-04-08T08:21:05;97236.47;;;14.10;52.01
3150;BME280;32503;47.748;8.960;2023-04-08T08:23:32;97226.41;;;14.10;54.04
3150;BME280;32503;47.748;8.960;2023-04-08T08:26:00;97244.69;;;14.44;53.70
3150;BME280;32503;47.748;8.960;2023-04-08T08:28:28;97247.06;;;14.49;52.43
3150;BME280;32503;47.748;8.960;2023-04-08T08:30:55;97253.22;;;14.42;51.35
3150;BME280;32503;47.748;8.960;2023-04-08T08:33:22;97251.69;;;14.45;51.43
3150;BME280;32503;47.748;8.960;2023-04-08T08:35:51;97245.28;;;14.30;50.61
3150;BME280;32503;47.748;8.960;2023-04-08T08:38:18;97249.91;;;14.29;50.21
3150;BME280;32503;47.748;8.960;2023-04-08T08:40:46;97250.44;;;14.38;50.36
3150;BME280;32503;47.748;8.960;2023-04-08T08:43:13;97257.91;;;14.45;50.36
3150;BME280;32503;47.748;8.960;2023-04-08T08:45:40;97231.47;;;14.12;50.40
3150;BME280;32503;47.748;8.960;2023-04-08T08:48:08;97255.38;;;14.29;50.11
3150;BME280;32503;47.748;8.960;2023-04-08T08:50:35;97265.00;;;14.23;50.02
3150;BME280;32503;47.748;8.960;2023-04-08T08:53:04;97262.34;;;14.27;49.83
3150;BME280;32503;47.748;8.960;2023-04-08T08:55:31;97260.72;;;14.22;49.58
3150;BME280;32503;47.748;8.960;2023-04-08T08:57:59;97269.28;;;14.24;49.39
3150;BME280;32503;47.748;8.960;2023-04-08T09:00:31;97267.00;;;14.26;49.42
3150;BME280;32503;47.748;8.960;2023-04-08T09:03:17;97251.31;;;14.16;49.20
3150;BME280;32503;47.748;8.960;2023-04-08T09:05:51;97260.41;;;14.27;49.59
3150;BME280;32503;47.748;8.960;2023-04-08T09:08:28;97265.09;;;14.30;49.22
3150;BME280;32503;47.748;8.960;2023-04-08T09:11:12;97247.44;;;14.17;48.96
3150;BME280;32503;47.748;8.960;2023-04-08T09:13:40;97256.84;;;14.23;49.29
3150;BME280;32503;47.748;8.960;2023-04-08T09:16:10;97268.59;;;14.31;49.27
3150;BME280;32503;47.748;8.960;2023-04-08T09:18:39;97272.75;;;14.21;49.65
3150;BME280;32503;47.748;8.960;2023-04-08T09:21:09;97276.28;;;14.25;49.79
3150;BME280;32503;47.748;8.960;2023-04-08T09:23:41;97241.06;;;14.06;49.41
3150;BME280;32503;47.748;8.960;2023-04-08T09:26:10;97263.34;;;14.15;49.64
3150;BME280;32503;47.748;8.960;2023-04-08T09:28:39;97275.38;;;14.14;49.80
3150;BME280;32503;47.748;8.960;2023-04-08T09:31:20;97247.56;;;13.97;50.23
3150;BME280;32503;47.748;8.960;2023-04-08T09:33:48;97255.31;;;13.95;49.81
3150;BME280;32503;47.748;8.960;2023-04-08T09:36:16;97276.47;;;14.09;49.46
3150;BME280;32503;47.748;8.960;2023-04-08T09:38:45;97270.00;;;14.17;49.52
3150;BME280;32503;47.748;8.960;2023-04-08T09:41:14;97270.66;;;14.11;49.22
3150;BME280;32503;47.748;8.960;2023-04-08T09:43:43;97270.63;;;14.07;49.03
3150;BME280;32503;47.748;8.960;2023-04-08T09:46:17;97267.84;;;14.03;48.82
3150;BME280;32503;47.748;8.960;2023-04-08T09:48:49;97275.28;;;14.07;48.79
3150;BME280;32503;47.748;8.960;2023-04-08T09:51:22;97269.34;;;14.01;48.90
3150;BME280;32503;47.748;8.960;2023-04-08T09:53:58;97280.53;;;13.96;49.13
3150;BME280;32503;47.748;8.960;2023-04-08T09:56:35;97275.91;;;13.96;48.91
3150;BME280;32503;47.748;8.960;2023-04-08T09:59:12;97281.41;;;14.00;48.84
3150;BME280;32503;47.748;8.960;2023-04-08T10:01:46;97285.31;;;14.02;49.02
3150;BME280;32503;47.748;8.960;2023-04-08T10:04:19;97278.72;;;14.03;48.80
3150;BME280;32503;47.748;8.960;2023-04-08T10:06:50;97286.97;;;14.11;48.40
3150;BME280;32503;47.748;8.960;2023-04-08T10:09:20;97281.59;;;14.14;48.15
3150;BME280;32503;47.748;8.960;2023-04-08T10:11:48;97278.91;;;14.18;48.24
3150;BME280;32503;47.748;8.960;2023-04-08T10:14:16;97285.19;;;14.22;47.95
3150;BME280;32503;47.748;8.960;2023-04-08T10:16:43;97274.88;;;14.08;47.93
3150;BME280;32503;47.748;8.960;2023-04-08T10:19:36;97284.00;;;14.19;47.77
3150;BME280;32503;47.748;8.960;2023-04-08T10:22:50;97270.13;;;14.28;47.74
3150;BME280;32503;47.748;8.960;2023-04-08T10:25:31;97254.69;;;14.36;47.61
3150;BME280;32503;47.748;8.960;2023-04-08T10:27:59;97236.03;;;14.38;47.04
3150;BME280;32503;47.748;8.960;2023-04-08T10:30:40;97279.44;;;14.88;46.25
3150;BME280;32503;47.748;8.960;2023-04-08T10:33:10;97270.25;;;15.03;46.32
3150;BME280;32503;47.748;8.960;2023-04-08T10:35:41;97243.31;;;14.94;45.88
3150;BME280;32503;47.748;8.960;2023-04-08T10:38:12;97258.66;;;15.10;45.39
3150;BME280;32503;47.748;8.960;2023-04-08T10:40:41;97269.41;;;14.95;45.43
3150;BME280;32503;47.748;8.960;2023-04-08T10:43:10;97267.34;;;14.85;45.83
3150;BME280;32503;47.748;8.960;2023-04-08T10:45:39;97250.47;;;14.72;46.27
3150;BME280;32503;47.748;8.960;2023-04-08T10:48:14;97265.44;;;14.89;45.60
3150;BME280;32503;47.748;8.960;2023-04-08T10:50:43;97263.09;;;14.88;44.72
3150;BME280;32503;47.748;8.960;2023-04-08T10:53:10;97272.88;;;14.96;44.50
3150;BME280;32503;47.748;8.960;2023-04-08T10:55:37;97267.19;;;15.08;44.53
3150;BME280;32503;47.748;8.960;2023-04-08T10:58:07;97239.22;;;15.11;44.74
3150;BME280;32503;47.748;8.960;2023-04-08T11:00:36;97259.66;;;15.32;44.45
3150;BME280;32503;47.748;8.960;2023-04-08T11:03:05;97234.09;;;15.06;46.01
3150;BME280;32503;47.748;8.960;2023-04-08T11:05:33;97264.94;;;15.17;47.04
3150;BME280;32503;47.748;8.960;2023-04-08T11:08:01;97260.91;;;15.01;46.81
3150;BME280;32503;47.748;8.960;2023-04-08T11:10:29;97258.81;;;14.87;47.52
3150;BME280;32503;47.748;8.960;2023-04-08T11:12:57;97259.97;;;14.89;47.56
3150;BME280;32503;47.748;8.960;2023-04-08T11:15:25;97262.66;;;14.86;46.60
3150;BME280;32503;47.748;8.960;2023-04-08T11:17:54;97236.88;;;15.10;46.13
3150;BME280;32503;47.748;8.960;2023-04-08T11:20:21;97252.72;;;15.45;45.99
3150;BME280;32503;47.748;8.960;2023-04-08T11:22:49;97247.78;;;15.62;45.64
3150;BME280;32503;47.748;8.960;2023-04-08T11:25:17;97253.66;;;15.64;45.62
3150;BME280;32503;47.748;8.960;2023-04-08T11:27:45;97252.09;;;15.63;44.88
3150;BME280;32503;47.748;8.960;2023-04-08T11:30:12;97256.50;;;15.30;45.45
3150;BME280;32503;47.748;8.960;2023-04-08T11:32:41;97251.75;;;15.20;45.61
3150;BME280;32503;47.748;8.960;2023-04-08T11:35:09;97250.13;;;15.15;46.19
3150;BME280;32503;47.748;8.960;2023-04-08T11:37:37;97222.13;;;15.14;45.91
3150;BME280;32503;47.748;8.960;2023-04-08T11:40:10;97246.53;;;15.48;45.33
3150;BME280;32503;47.748;8.960;2023-04-08T11:42:38;97237.13;;;15.42;45.86
3150;BME280;32503;47.748;8.960;2023-04-08T11:45:13;97230.81;;;15.31;45.42
3150;BME280;32503;47.748;8.960;2023-04-08T11:47:42;97234.63;;;15.23;44.97
3150;BME280;32503;47.748;8.960;2023-04-08T11:50:10;97235.41;;;15.20;45.09
3150;BME280;32503;47.748;8.960;2023-04-08T11:52:42;97239.00;;;15.31;45.19
3150;BME280;32503;47.748;8.960;2023-04-08T11:55:10;97231.28;;;15.40;44.59
3150;BME280;32503;47.748;8.960;2023-04-08T11:57:38;97222.69;;;15.34;45.20
3150;BME280;32503;47.748;8.960;2023-04-08T12:00:06;97236.50;;;15.60;44.65
3150;BME280;32503;47.748;8.960;2023-04-08T12:02:34;97228.78;;;15.69;44.68
3150;BME280;32503;47.748;8.960;2023-04-08T12:05:03;97242.19;;;15.88;43.87
3150;BME280;32503;47.748;8.960;2023-04-08T12:07:30;97244.16;;;15.95;42.82
3150;BME280;32503;47.748;8.960;2023-04-08T12:09:58;97237.16;;;15.94;42.00
3150;BME280;32503;47.748;8.960;2023-04-08T12:12:26;97219.78;;;15.65;42.48
3150;BME280;32503;47.748;8.960;2023-04-08T12:14:53;97241.31;;;15.77;42.89
3150;BME280;32503;47.748;8.960;2023-04-08T12:17:20;97228.81;;;15.72;43.37
3150;BME280;32503;47.748;8.960;2023-04-08T12:19:47;97236.28;;;15.79;42.83
3150;BME280;32503;47.748;8.960;2023-04-08T12:22:15;97239.31;;;15.74;42.79
3150;BME280;32503;47.748;8.960;2023-04-08T12:24:42;97235.81;;;15.73;42.81
3150;BME280;32503;47.748;8.960;2023-04-08T12:27:09;97245.91;;;15.66;43.01
3150;BME280;32503;47.748;8.960;2023-04-08T12:29:36;97248.19;;;15.60;42.62
3150;BME280;32503;47.748;8.960;2023-04-08T12:32:03;97244.25;;;15.54;42.29
3150;BME280;32503;47.748;8.960;2023-04-08T12:34:31;97240.25;;;15.41;42.84
3150;BME280;32503;47.748;8.960;2023-04-08T12:36:58;97247.16;;;15.31;42.94
3150;BME280;32503;47.748;8.960;2023-04-08T12:39:27;97242.41;;;15.21;43.32
3150;BME280;32503;47.748;8.960;2023-04-08T12:41:54;97244.72;;;15.19;43.71
3150;BME280;32503;47.748;8.960;2023-04-08T12:44:21;97231.88;;;15.19;44.01
3150;BME280;32503;47.748;8.960;2023-04-08T12:46:48;97242.38;;;15.17;43.69
3150;BME280;32503;47.748;8.960;2023-04-08T12:49:15;97239.28;;;15.19;44.01
3150;BME280;32503;47.748;8.960;2023-04-08T12:51:43;97241.59;;;15.16;44.10
3150;BME280;32503;47.748;8.960;2023-04-08T12:54:10;97244.66;;;15.11;44.27
3150;BME280;32503;47.748;8.960;2023-04-08T12:56:39;97244.25;;;15.09;43.51
3150;BME280;32503;47.748;8.960;2023-04-08T12:59:08;97246.06;;;14.98;44.13
3150;BME280;32503;47.748;8.960;2023-04-08T13:01:35;97249.09;;;14.89;44.32
3150;BME280;32503;47.748;8.960;2023-04-08T13:04:02;97234.91;;;14.69;44.29
3150;BME280;32503;47.748;8.960;2023-04-08T13:06:29;97226.53;;;14.55;44.56
3150;BME280;32503;47.748;8.960;2023-04-08T13:08:56;97248.78;;;14.60;45.62
3150;BME280;32503;47.748;8.960;2023-04-08T13:11:23;97246.97;;;14.41;45.55
3150;BME280;32503;47.748;8.960;2023-04-08T13:13:52;97246.16;;;14.37;45.96
3150;BME280;32503;47.748;8.960;2023-04-08T13:16:19;97243.75;;;14.32;45.95
3150;BME280;32503;47.748;8.960;2023-04-08T13:18:46;97246.09;;;14.34;45.94
3150;BME280;32503;47.748;8.960;2023-04-08T13:21:13;97244.47;;;14.29;45.97
3150;BME280;32503;47.748;8.960;2023-04-08T13:23:40;97244.44;;;14.26;45.75